Raeford, North Carolina
Current Conditions -  °F | °C
As of 1:52 PM on Friday 28 Nov 2014 (Local Time) from KMEB Reporting Station
Clear Clear  
Wind Chill: 42°   Ceiling: Unl
Heat Index: 46°   Visibility: 10mi
Dew Point: 18°   Wind: 7mph
Humidity: 33%   Direction: 30°NNE
Pressure: 30.31"   Gusts: NA
Location:  34.98°N, 79.22°W
Report Text: KMEB 281852Z AUTO 03006KT 10SM CLR 08/M08 A3031 RMK AO2 SLP265 T00781078
Loading
Personal Weather Stations






























Interactive Weather Map New forecast layout! Learn more

10-Day Weather Forecast

Advertisements
Track Severe Weather on mobile